Time;durP1;ratioP1;P1;durP2;ratioP2;P2;SDS_P1;SDS_P2;PMS_P1;PMS_P2;Temp;Humidity;BMP_temperature;BMP_pressure;BME280_temperature;BME280_humidity;BME280_pressure;Samples;Min_cycle;Max_cycle;Signal;HPM_P1;HPM_P2
2022/05/13 00:01:54;;;;;;;11.98;2.58;;;12.30;99.90;;;;;;4981767;28;20050;-67
2022/05/13 00:04:20;;;;;;;9.95;2.65;;;12.30;99.90;;;;;;4912562;28;177595;-67
2022/05/13 00:06:47;;;;;;;12.75;2.60;;;12.30;99.90;;;;;;4979013;28;20051;-67
2022/05/13 00:09:13;;;;;;;12.82;2.40;;;12.30;99.90;;;;;;4947745;28;206112;-66
2022/05/13 00:11:40;;;;;;;11.40;2.80;;;12.30;99.90;;;;;;4978736;28;20500;-67
2022/05/13 00:14:08;;;;;;;9.77;2.40;;;12.30;99.90;;;;;;4922419;28;210888;-66
2022/05/13 00:16:37;;;;;;;10.68;2.40;;;12.30;99.90;;;;;;4981002;28;20055;-67
2022/05/13 00:19:04;;;;;;;12.10;2.53;;;12.30;99.90;;;;;;4910551;28;210286;-67
2022/05/13 00:21:32;;;;;;;9.15;2.60;;;12.30;99.90;;;;;;4989129;28;20065;-66
2022/05/13 00:23:58;;;;;;;11.70;2.53;;;12.30;99.90;;;;;;4914656;28;195442;-66
2022/05/13 00:26:24;;;;;;;11.10;2.63;;;12.30;99.90;;;;;;4974731;28;20069;-67
2022/05/13 00:28:50;;;;;;;10.27;2.67;;;12.30;99.90;;;;;;4932632;28;210167;-67
2022/05/13 00:31:16;;;;;;;13.25;2.63;;;12.30;99.90;;;;;;4960944;28;158601;-67
2022/05/13 00:33:42;;;;;;;12.07;2.75;;;12.30;99.90;;;;;;4923951;28;213916;-67
2022/05/13 00:36:08;;;;;;;13.05;3.05;;;12.30;99.90;;;;;;4962411;28;64036;-67
2022/05/13 00:38:34;;;;;;;10.68;2.60;;;12.30;99.90;;;;;;4926434;28;212227;-66
2022/05/13 00:41:01;;;;;;;11.43;2.80;;;12.30;99.90;;;;;;4969056;28;257307;-66
2022/05/13 00:43:49;;;;;;;10.85;2.47;;;12.30;99.90;;;;;;4924565;28;210321;-67
2022/05/13 00:46:16;;;;;;;9.50;2.53;;;12.30;99.90;;;;;;4967084;28;108467;-67
2022/05/13 00:48:43;;;;;;;11.68;2.70;;;12.30;99.90;;;;;;4929509;28;210800;-66
2022/05/13 00:51:13;;;;;;;13.63;2.80;;;12.20;99.90;;;;;;4970687;28;206948;-67
2022/05/13 00:53:39;;;;;;;11.27;2.63;;;12.30;99.90;;;;;;4925697;28;224824;-67
2022/05/13 00:56:06;;;;;;;13.85;2.60;;;12.30;99.90;;;;;;4983007;28;20054;-67
2022/05/13 00:58:35;;;;;;;12.53;2.80;;;12.20;99.90;;;;;;4919610;28;211978;-67
2022/05/13 01:01:01;;;;;;;10.68;2.72;;;12.20;99.90;;;;;;4978945;28;212986;-67
2022/05/13 01:03:27;;;;;;;11.57;2.73;;;12.30;99.90;;;;;;4917667;28;211101;-67
2022/05/13 01:05:57;;;;;;;11.75;2.90;;;12.30;99.90;;;;;;4947268;28;156746;-67
2022/05/13 01:08:24;;;;;;;13.40;2.77;;;12.30;99.90;;;;;;4920704;28;210932;-66
2022/05/13 01:10:51;;;;;;;10.02;2.30;;;12.30;99.90;;;;;;4982732;28;113955;-67
2022/05/13 01:13:23;;;;;;;16.40;3.28;;;12.30;99.90;;;;;;4962951;28;211451;-64
2022/05/13 01:15:49;;;;;;;;;;;12.30;99.90;;;;;;4940850;28;152938;-67
2022/05/13 01:18:33;;;;;;;13.43;2.70;;;12.30;99.90;;;;;;4966673;28;19926;-67
2022/05/13 01:21:01;;;;;;;12.93;2.97;;;12.30;99.90;;;;;;4922493;28;198163;-67
2022/05/13 01:23:31;;;;;;;14.57;2.70;;;12.30;99.90;;;;;;4920809;28;209699;-67
2022/05/13 01:26:11;;;;;;;12.25;2.60;;;12.30;99.90;;;;;;4979189;28;114592;-67
2022/05/13 01:28:42;;;;;;;16.60;2.75;;;12.30;99.90;;;;;;4927177;28;210502;-67
2022/05/13 01:31:11;;;;;;;12.93;3.03;;;12.30;99.90;;;;;;4983221;28;47606;-67
2022/05/13 01:33:38;;;;;;;13.48;2.45;;;12.30;99.90;;;;;;4917225;28;210102;-67
2022/05/13 01:36:05;;;;;;;12.02;3.00;;;12.30;99.90;;;;;;4974381;28;276456;-67
2022/05/13 01:38:35;;;;;;;12.63;2.97;;;12.30;99.90;;;;;;4920229;28;210189;-67
2022/05/13 01:41:03;;;;;;;13.23;2.75;;;12.30;99.90;;;;;;4981950;28;62618;-67
2022/05/13 01:43:30;;;;;;;17.40;2.88;;;12.30;99.90;;;;;;4920495;28;210509;-67
2022/05/13 01:45:56;;;;;;;10.98;2.78;;;12.30;99.90;;;;;;4978714;28;139447;-67
2022/05/13 01:48:24;;;;;;;14.93;3.05;;;12.30;99.90;;;;;;4921515;28;213806;-64
2022/05/13 01:50:50;;;;;;;12.90;2.88;;;12.30;99.90;;;;;;4972095;28;124177;-67
2022/05/13 01:53:16;;;;;;;15.35;2.90;;;12.30;99.90;;;;;;4960642;28;20141;-67
2022/05/13 01:55:42;;;;;;;12.38;2.67;;;12.30;99.90;;;;;;4924536;28;210471;-67
2022/05/13 01:58:14;;;;;;;12.68;3.20;;;12.30;99.90;;;;;;4995383;28;20609;-67
2022/05/13 02:00:42;;;;;;;13.27;3.00;;;12.30;99.90;;;;;;4921890;28;206691;-67
2022/05/13 02:05:53;;;;;;;13.70;2.95;;;12.30;99.90;;;;;;4927428;28;206726;-67
2022/05/13 02:08:19;;;;;;;12.80;2.97;;;12.30;99.90;;;;;;4959350;28;209812;-67
2022/05/13 02:10:45;;;;;;;12.05;3.03;;;12.30;99.90;;;;;;4957566;28;167187;-67
2022/05/13 02:13:12;;;;;;;12.50;2.80;;;12.20;99.90;;;;;;4957876;28;20050;-67
2022/05/13 02:15:39;;;;;;;13.07;2.85;;;12.20;99.90;;;;;;4929113;28;209664;-67
2022/05/13 02:18:06;;;;;;;16.35;3.50;;;12.20;99.90;;;;;;4959427;28;20050;-67
2022/05/13 02:20:32;;;;;;;14.65;2.95;;;12.20;99.90;;;;;;4930770;28;209798;-67
2022/05/13 02:22:58;;;;;;;11.00;2.65;;;12.20;99.90;;;;;;4962198;28;20055;-67
2022/05/13 02:25:24;;;;;;;10.23;2.75;;;12.20;99.90;;;;;;4929432;28;210583;-67
2022/05/13 02:27:51;;;;;;;12.25;2.97;;;12.20;99.90;;;;;;4967351;28;20062;-67
2022/05/13 02:30:18;;;;;;;15.30;2.97;;;12.20;99.90;;;;;;4926971;28;212997;-67
2022/05/13 02:32:44;;;;;;;12.23;2.92;;;12.20;99.90;;;;;;4965455;28;20437;-67
2022/05/13 02:35:11;;;;;;;16.17;3.63;;;12.20;99.90;;;;;;4936166;28;206462;-67
2022/05/13 02:37:37;;;;;;;11.82;3.28;;;12.10;99.90;;;;;;4965660;28;20445;-67
2022/05/13 02:40:04;;;;;;;15.18;3.22;;;12.10;99.90;;;;;;4929593;28;208889;-67
2022/05/13 02:42:30;;;;;;;10.98;2.90;;;12.20;99.90;;;;;;4964156;28;20047;-67
2022/05/13 02:44:56;;;;;;;14.85;2.95;;;12.20;99.90;;;;;;4918125;28;216713;-67
2022/05/13 02:47:22;;;;;;;10.95;3.40;;;12.10;99.90;;;;;;4968959;28;21879;-67
2022/05/13 02:50:17;;;;;;;13.23;3.45;;;12.10;99.90;;;;;;4916698;28;210829;-67
2022/05/13 02:52:34;;;;;;;14.60;3.28;;;12.10;99.90;;;;;;4962113;28;20091;-67
2022/05/13 02:55:00;;;;;;;19.15;3.22;;;12.00;99.90;;;;;;4926589;28;209183;-67
2022/05/13 02:57:27;;;;;;;10.98;3.20;;;12.00;99.90;;;;;;4965412;28;20684;-67
2022/05/13 02:59:53;;;;;;;14.15;3.55;;;12.00;99.90;;;;;;4923378;28;225903;-67
2022/05/13 03:02:19;;;;;;;12.70;3.17;;;12.00;99.90;;;;;;4968047;28;20058;-67
2022/05/13 03:04:45;;;;;;;12.90;3.63;;;12.00;99.90;;;;;;4901544;28;213347;-67
2022/05/13 03:07:11;;;;;;;12.10;3.47;;;12.00;99.90;;;;;;4968649;28;20053;-67
2022/05/13 03:09:37;;;;;;;16.48;3.42;;;11.90;99.90;;;;;;4914462;28;210932;-67
2022/05/13 03:12:04;;;;;;;13.60;3.30;;;11.90;99.90;;;;;;4965538;28;20427;-67
2022/05/13 03:14:30;;;;;;;13.05;3.13;;;12.00;99.90;;;;;;4915119;28;210656;-67
2022/05/13 03:16:57;;;;;;;12.77;3.30;;;12.00;99.90;;;;;;4971480;28;20059;-67
2022/05/13 03:19:23;;;;;;;12.95;3.30;;;11.90;99.90;;;;;;4917832;28;214759;-67
2022/05/13 03:21:49;;;;;;;13.57;3.78;;;11.90;99.90;;;;;;4973162;28;20047;-67
2022/05/13 03:24:15;;;;;;;15.98;4.28;;;11.90;99.90;;;;;;4909641;28;211355;-67
2022/05/13 03:26:42;;;;;;;13.30;3.45;;;11.90;99.90;;;;;;4976413;28;20043;-67
2022/05/13 03:29:08;;;;;;;12.45;3.60;;;11.90;99.90;;;;;;4910130;28;209021;-67
2022/05/13 03:31:36;;;;;;;13.48;3.67;;;11.90;99.90;;;;;;4976301;28;20047;-67
2022/05/13 03:34:02;;;;;;;15.48;3.90;;;11.90;99.90;;;;;;4912919;28;213324;-66
2022/05/13 03:36:31;;;;;;;13.88;3.83;;;11.90;99.90;;;;;;4983071;28;20504;-67
2022/05/13 03:38:57;;;;;;;16.50;3.67;;;11.90;99.90;;;;;;4912430;28;209975;-65
2022/05/13 03:41:23;;;;;;;17.48;3.75;;;12.00;99.90;;;;;;4981347;28;20641;-67
2022/05/13 03:43:49;;;;;;;18.13;3.85;;;12.00;99.90;;;;;;4917980;28;211148;-67
2022/05/13 03:46:15;;;;;;;15.15;3.88;;;12.00;99.90;;;;;;4939476;28;241233;-67
2022/05/13 03:48:42;;;;;;;13.20;3.45;;;12.00;99.90;;;;;;4919229;28;209361;-67
2022/05/13 03:51:08;;;;;;;15.52;3.65;;;12.00;99.90;;;;;;4972143;28;172670;-67
2022/05/13 03:53:34;;;;;;;19.40;4.30;;;12.10;99.90;;;;;;4915009;28;210360;-67
2022/05/13 03:56:00;;;;;;;19.40;4.30;;;12.10;99.90;;;;;;4975196;28;147220;-67
2022/05/13 03:58:26;;;;;;;18.13;3.95;;;12.10;99.90;;;;;;4912683;28;211515;-67
2022/05/13 04:00:53;;;;;;;16.55;3.88;;;12.10;99.90;;;;;;4976797;28;116785;-67
2022/05/13 04:03:19;;;;;;;17.15;3.95;;;12.10;99.90;;;;;;4959487;28;210487;-66
2022/05/13 04:11:15;;;;;;;23.02;4.13;;;12.10;99.90;;;;;;4975967;28;94726;-67
2022/05/13 04:16:27;;;;;;;18.52;4.07;;;12.20;99.90;;;;;;4965003;28;20499;-67
2022/05/13 04:18:53;;;;;;;15.35;3.90;;;12.20;99.90;;;;;;4929441;28;221859;-67
2022/05/13 04:21:28;;;;;;;16.58;4.03;;;12.10;99.90;;;;;;4978732;28;137055;-67
2022/05/13 04:23:59;;;;;;;19.08;4.55;;;12.20;99.90;;;;;;4926313;28;210203;-67
2022/05/13 04:26:26;;;;;;;17.05;3.67;;;12.20;99.90;;;;;;4966977;28;20042;-67
2022/05/13 04:28:54;;;;;;;19.83;4.47;;;12.10;99.90;;;;;;4930616;28;213792;-67
2022/05/13 04:31:23;;;;;;;14.82;3.38;;;12.10;99.90;;;;;;4983163;28;25116;-67
2022/05/13 04:33:51;;;;;;;20.05;3.78;;;12.10;99.90;;;;;;4930882;28;213100;-67
2022/05/13 04:36:19;;;;;;;17.65;3.85;;;12.20;99.90;;;;;;4985969;28;74792;-71
2022/05/13 04:38:45;;;;;;;18.85;4.03;;;12.10;99.90;;;;;;4931724;28;209775;-67
2022/05/13 04:43:59;;;;;;;20.80;4.05;;;12.20;99.90;;;;;;4918249;28;210177;-67
2022/05/13 04:46:25;;;;;;;12.88;3.13;;;12.20;99.90;;;;;;4993941;28;20051;-67
2022/05/13 04:48:53;;;;;;;20.13;3.92;;;12.20;99.90;;;;;;4923311;28;209180;-67
2022/05/13 04:51:20;;;;;;;16.58;3.70;;;12.20;99.90;;;;;;4980268;28;88992;-67
2022/05/13 04:53:49;;;;;;;18.40;3.90;;;12.20;99.90;;;;;;4926796;28;209815;-67
2022/05/13 04:56:15;;;;;;;20.98;4.05;;;12.20;99.90;;;;;;4978837;28;178581;-67
2022/05/13 04:58:42;;;;;;;18.13;3.83;;;12.20;99.90;;;;;;4924543;28;215148;-68
2022/05/13 05:01:10;;;;;;;22.40;4.30;;;12.20;99.90;;;;;;4983376;28;73222;-68
2022/05/13 05:03:36;;;;;;;21.52;4.28;;;12.30;99.90;;;;;;4926853;28;213504;-68
2022/05/13 05:06:04;;;;;;;18.33;4.15;;;12.30;99.90;;;;;;4959746;28;146172;-68
2022/05/13 05:08:31;;;;;;;17.23;3.50;;;12.30;99.90;;;;;;4924145;28;210113;-68
2022/05/13 05:10:57;;;;;;;16.50;4.05;;;12.30;99.90;;;;;;4980659;28;46873;-68
2022/05/13 05:13:33;;;;;;;18.00;3.50;;;12.30;99.90;;;;;;4928106;28;218689;-67
2022/05/13 05:16:00;;;;;;;16.98;3.38;;;12.40;99.90;;;;;;4989944;28;63418;-67
2022/05/13 05:18:26;;;;;;;17.70;4.03;;;12.40;99.90;;;;;;4921689;28;212918;-66
2022/05/13 05:20:53;;;;;;;19.48;3.72;;;12.50;99.90;;;;;;4988328;28;20058;-66
2022/05/13 05:23:28;;;;;;;18.63;3.60;;;12.60;99.90;;;;;;4957240;28;209524;-64
2022/05/13 05:25:54;;;;;;;19.13;4.22;;;12.60;99.90;;;;;;4947446;28;220195;-66
2022/05/13 05:28:21;;;;;;;14.05;3.50;;;12.70;99.90;;;;;;4941555;28;215095;-65
2022/05/13 05:30:48;;;;;;;19.17;3.70;;;12.80;99.90;;;;;;4968133;28;207596;-66
2022/05/13 05:33:15;;;;;;;19.80;3.40;;;12.90;99.90;;;;;;4958135;28;20330;-66
2022/05/13 05:35:41;;;;;;;18.08;3.40;;;12.90;99.90;;;;;;4927783;28;217991;-67
2022/05/13 05:38:08;;;;;;;20.30;3.67;;;13.00;99.90;;;;;;4956257;28;20058;-67
2022/05/13 05:40:35;;;;;;;18.35;3.70;;;13.00;99.90;;;;;;4928898;28;206221;-67
2022/05/13 05:43:04;;;;;;;23.88;4.18;;;13.10;99.90;;;;;;4961684;28;20047;-67
2022/05/13 05:45:30;;;;;;;15.40;3.38;;;13.20;99.90;;;;;;4930573;28;210257;-67
2022/05/13 05:47:57;;;;;;;19.92;3.92;;;13.30;99.90;;;;;;4963555;28;20510;-67
2022/05/13 05:50:23;;;;;;;16.73;3.53;;;13.40;99.90;;;;;;4930868;28;209659;-67
2022/05/13 05:52:49;;;;;;;20.17;4.25;;;13.50;99.90;;;;;;4958005;28;20050;-67
2022/05/13 05:58:10;;;;;;;18.65;3.55;;;13.60;99.90;;;;;;4952108;28;20046;-67
2022/05/13 06:00:39;;;;;;;17.05;3.08;;;13.60;99.90;;;;;;4906229;28;212489;-67
2022/05/13 06:03:06;;;;;;;14.40;3.30;;;13.70;99.90;;;;;;4952054;28;20051;-67
2022/05/13 06:05:32;;;;;;;14.68;3.10;;;13.70;99.90;;;;;;4910753;28;210101;-67
2022/05/13 06:08:00;;;;;;;16.48;3.20;;;13.70;99.90;;;;;;4956993;28;20057;-67
2022/05/13 06:10:27;;;;;;;18.20;3.03;;;13.80;99.90;;;;;;4921725;28;206227;-67
2022/05/13 06:12:54;;;;;;;15.13;3.03;;;13.90;99.90;;;;;;4955044;28;20066;-67
2022/05/13 06:15:21;;;;;;;13.93;2.70;;;13.90;99.90;;;;;;4921826;28;158437;-67
2022/05/13 06:17:50;;;;;;;15.13;2.70;;;13.90;99.90;;;;;;4957403;28;20046;-67
2022/05/13 06:20:19;;;;;;;12.88;2.58;;;13.90;99.90;;;;;;4934831;28;208389;-67
2022/05/13 06:22:46;;;;;;;15.95;2.85;;;14.00;99.90;;;;;;4962064;28;20095;-67
2022/05/13 06:25:14;;;;;;;10.55;2.30;;;14.00;99.90;;;;;;4929346;28;209096;-67
2022/05/13 06:27:42;;;;;;;12.88;2.38;;;14.00;99.90;;;;;;4960567;28;20066;-67
2022/05/13 06:30:12;;;;;;;12.60;2.53;;;14.10;99.90;;;;;;4915985;28;208542;-67
2022/05/13 06:32:38;;;;;;;11.82;2.30;;;14.20;99.90;;;;;;4960799;28;20053;-67
2022/05/13 06:35:05;;;;;;;15.55;2.20;;;14.20;99.90;;;;;;4920874;28;208589;-67
2022/05/13 06:37:31;;;;;;;14.20;2.55;;;14.20;99.90;;;;;;4961888;28;20051;-67
2022/05/13 06:39:57;;;;;;;13.57;2.28;;;14.30;99.90;;;;;;4926608;28;210054;-67
2022/05/13 06:42:23;;;;;;;12.18;2.22;;;14.40;99.90;;;;;;4963122;28;20054;-67
2022/05/13 06:44:49;;;;;;;14.38;2.40;;;14.40;99.90;;;;;;4921564;28;210097;-66
2022/05/13 06:47:16;;;;;;;15.38;2.70;;;14.50;99.90;;;;;;4978298;28;20047;-67
2022/05/13 06:49:42;;;;;;;14.80;2.42;;;14.60;99.90;;;;;;4920239;28;234719;-67
2022/05/13 06:52:13;;;;;;;13.25;2.05;;;14.70;99.90;;;;;;4983901;28;20440;-66
2022/05/13 06:54:41;;;;;;;12.15;2.25;;;14.70;99.90;;;;;;4929529;28;221310;-67
2022/05/13 06:57:08;;;;;;;16.77;2.42;;;14.60;99.90;;;;;;4965396;28;20055;-66
2022/05/13 06:59:34;;;;;;;13.27;2.13;;;14.60;99.90;;;;;;4911841;28;215728;-66
2022/05/13 07:02:00;;;;;;;12.30;2.15;;;14.50;99.90;;;;;;4978819;28;20325;-68
2022/05/13 07:04:26;;;;;;;13.38;2.20;;;14.40;99.90;;;;;;4907400;28;211027;-67
2022/05/13 07:06:52;;;;;;;13.05;2.38;;;14.40;99.90;;;;;;4974270;28;20046;-67
2022/05/13 07:09:19;;;;;;;11.18;2.22;;;14.40;99.90;;;;;;4916584;28;209813;-67
2022/05/13 07:11:45;;;;;;;13.70;2.00;;;14.40;99.90;;;;;;4983131;28;20508;-67
2022/05/13 07:14:13;;;;;;;11.35;2.13;;;14.40;99.90;;;;;;4921986;28;215859;-67
2022/05/13 07:16:39;;;;;;;13.75;2.30;;;14.40;99.90;;;;;;4981995;28;20067;-67
2022/05/13 07:19:06;;;;;;;12.15;2.10;;;14.40;99.90;;;;;;4912618;28;210233;-67
2022/05/13 07:21:32;;;;;;;9.88;2.55;;;14.60;99.90;;;;;;4975532;28;20061;-67
2022/05/13 07:23:58;;;;;;;10.55;2.08;;;14.80;99.90;;;;;;4916021;28;210323;-67
2022/05/13 07:26:24;;;;;;;12.50;2.20;;;15.00;99.90;;;;;;4983918;28;20050;-67
2022/05/13 07:28:51;;;;;;;14.57;2.22;;;15.00;99.90;;;;;;4935691;28;184507;-67
2022/05/13 07:31:17;;;;;;;11.80;2.00;;;15.10;99.90;;;;;;4970592;28;94210;-67
2022/05/13 07:33:43;;;;;;;11.50;1.75;;;15.50;99.90;;;;;;4927770;28;208900;-67
2022/05/13 07:36:09;;;;;;;9.57;1.80;;;15.80;99.90;;;;;;4965355;28;217622;-67
2022/05/13 07:38:35;;;;;;;14.90;2.53;;;16.00;99.90;;;;;;4925620;28;209297;-67
2022/05/13 07:41:17;;;;;;;9.63;1.88;;;15.90;99.90;;;;;;4980356;28;22737;-67
2022/05/13 07:43:45;;;;;;;14.15;2.03;;;15.70;99.90;;;;;;4926212;28;228060;-67
2022/05/13 07:46:12;;;;;;;11.50;2.00;;;15.50;99.90;;;;;;4984385;28;73216;-68
2022/05/13 07:48:40;;;;;;;10.27;1.50;;;15.50;99.90;;;;;;4920742;28;220849;-67
2022/05/13 07:51:08;;;;;;;10.45;2.10;;;15.70;99.90;;;;;;4970439;28;280487;-67
2022/05/13 07:53:35;;;;;;;9.57;1.73;;;16.20;99.90;;;;;;4924354;28;209716;-67
2022/05/13 07:56:02;;;;;;;11.15;1.83;;;16.60;99.90;;;;;;4984153;28;20049;-68
2022/05/13 07:58:29;;;;;;;13.87;2.13;;;17.00;99.90;;;;;;4914396;28;212785;-67
2022/05/13 08:00:55;;;;;;;10.95;1.85;;;17.00;99.90;;;;;;4978068;28;215375;-67
2022/05/13 08:03:22;;;;;;;9.05;1.63;;;16.70;99.90;;;;;;4935964;28;208206;-67
2022/05/13 08:05:50;;;;;;;11.35;1.80;;;16.40;99.90;;;;;;4942276;28;216406;-68
2022/05/13 08:08:21;;;;;;;11.52;1.85;;;16.30;99.90;;;;;;4963999;28;20050;-67
2022/05/13 08:10:55;;;;;;;10.38;1.70;;;16.00;99.90;;;;;;4923003;28;116024;-67
2022/05/13 08:13:23;;;;;;;10.07;1.70;;;16.00;99.90;;;;;;4971530;28;207894;-66
2022/05/13 08:15:50;;;;;;;10.70;1.50;;;15.80;99.90;;;;;;4967329;28;206711;-67
2022/05/13 08:18:18;;;;;;;10.70;2.42;;;15.60;99.90;;;;;;4967749;28;20057;-67
2022/05/13 08:20:45;;;;;;;10.07;1.80;;;15.50;99.90;;;;;;4940207;28;222067;-67
2022/05/13 08:23:12;;;;;;;9.98;1.88;;;15.50;99.90;;;;;;4966538;28;20495;-68
2022/05/13 08:25:38;;;;;;;8.95;1.60;;;15.40;99.90;;;;;;4933228;28;223470;-67
2022/05/13 08:28:06;;;;;;;8.85;1.80;;;15.30;99.90;;;;;;4965760;28;20050;-67
2022/05/13 08:30:32;;;;;;;9.38;1.60;;;15.30;99.90;;;;;;4921927;28;210918;-67
2022/05/13 08:33:01;;;;;;;8.48;1.80;;;15.40;99.90;;;;;;4973921;28;20500;-67
2022/05/13 08:35:28;;;;;;;12.20;1.88;;;15.60;99.90;;;;;;4932511;28;216078;-67
2022/05/13 08:37:54;;;;;;;14.13;1.90;;;15.50;99.90;;;;;;4968160;28;20054;-67
2022/05/13 08:40:38;;;;;;;9.20;1.80;;;15.40;99.90;;;;;;4922398;28;206284;-68
2022/05/13 08:43:11;;;;;;;10.40;2.00;;;15.20;99.90;;;;;;4966558;28;20051;-67
2022/05/13 08:45:40;;;;;;;10.23;1.70;;;15.30;99.90;;;;;;4934861;28;209727;-67
2022/05/13 08:48:13;;;;;;;10.10;1.85;;;15.70;99.90;;;;;;4964648;28;20057;-67
2022/05/13 08:51:02;;;;;;;8.95;1.65;;;15.90;99.90;;;;;;4922357;28;252396;-67
2022/05/13 08:53:36;;;;;;;12.83;1.80;;;16.00;99.90;;;;;;4917385;28;211154;-67
2022/05/13 08:56:07;;;;;;;12.23;1.67;;;16.00;99.90;;;;;;4976175;28;108058;-67
2022/05/13 08:58:39;;;;;;;12.20;1.70;;;16.00;99.90;;;;;;4919950;28;210872;-67
2022/05/13 09:01:11;;;;;;;13.25;2.10;;;15.80;99.90;;;;;;4972361;28;84345;-67
2022/05/13 09:03:45;;;;;;;10.88;1.70;;;15.80;99.90;;;;;;4918051;28;215103;-67
2022/05/13 09:06:18;;;;;;;8.00;1.67;;;15.60;99.90;;;;;;4952328;28;145472;-67
2022/05/13 09:08:45;;;;;;;9.77;1.77;;;15.80;99.90;;;;;;4917531;28;234220;-67
2022/05/13 09:11:23;;;;;;;10.32;2.03;;;16.50;99.90;;;;;;4971715;28;183326;-67
2022/05/13 09:14:08;;;;;;;12.82;1.83;;;17.30;99.90;;;;;;4927259;28;210280;-67
2022/05/13 09:16:41;;;;;;;10.57;1.90;;;18.00;97.70;;;;;;4960899;28;20511;-67
2022/05/13 09:19:24;;;;;;;8.60;1.70;;;18.00;98.50;;;;;;4908886;28;215710;-67
2022/05/13 09:21:50;;;;;;;9.80;1.40;;;18.20;96.50;;;;;;4978201;28;20153;-67
2022/05/13 09:24:16;;;;;;;8.85;1.70;;;18.20;97.50;;;;;;4915853;28;210966;-66
2022/05/13 09:26:43;;;;;;;9.63;1.42;;;18.30;97.10;;;;;;4977516;28;20066;-67
2022/05/13 09:29:11;;;;;;;8.68;1.60;;;18.00;95.60;;;;;;4907003;28;211049;-67
2022/05/13 09:31:44;;;;;;;11.35;1.77;;;17.40;96.00;;;;;;4964249;28;20051;-67
2022/05/13 09:34:28;;;;;;;11.38;1.50;;;16.90;97.30;;;;;;4921277;28;209560;-67
2022/05/13 09:37:18;;;;;;;10.95;2.00;;;16.60;97.90;;;;;;4972209;28;20053;-66
2022/05/13 09:39:46;;;;;;;12.18;1.60;;;16.70;98.10;;;;;;4928473;28;206584;-67
2022/05/13 09:42:34;;;;;;;10.43;1.95;;;16.60;98.60;;;;;;4959622;28;20074;-67
2022/05/13 09:45:36;;;;;;;10.25;1.65;;;16.50;98.50;;;;;;4921281;28;209285;-66
2022/05/13 09:48:18;;;;;;;9.30;1.52;;;16.40;98.10;;;;;;4967806;28;20066;-66
2022/05/13 09:50:50;;;;;;;9.50;1.40;;;16.40;98.50;;;;;;4926989;28;206789;-66
2022/05/13 09:53:22;;;;;;;10.85;1.83;;;16.50;98.90;;;;;;4967972;28;20602;-66
2022/05/13 09:55:50;;;;;;;10.10;1.83;;;16.40;99.10;;;;;;4933934;28;206596;-66
2022/05/13 09:58:22;;;;;;;9.82;1.60;;;16.20;99.50;;;;;;4968192;28;20054;-67
2022/05/13 10:00:52;;;;;;;10.05;1.58;;;16.30;99.40;;;;;;4920570;28;238366;-66
2022/05/13 10:03:24;;;;;;;11.30;1.60;;;16.60;99.40;;;;;;4964081;28;20229;-66
2022/05/13 10:06:02;;;;;;;9.20;1.60;;;17.20;99.20;;;;;;4923572;28;206444;-67
2022/05/13 10:08:28;;;;;;;10.43;1.70;;;17.20;96.90;;;;;;4932263;28;211003;-66
2022/05/13 10:13:59;;;;;;;;;;;16.90;97.90;;;;;;4928956;28;207413;-66
2022/05/13 10:16:43;;;;;;;9.57;1.70;;;16.80;98.40;;;;;;4951803;28;19925;-66
2022/05/13 10:19:20;;;;;;;8.60;1.63;;;17.30;98.30;;;;;;4912179;28;240115;-66
2022/05/13 10:22:15;;;;;;;10.25;1.70;;;17.70;97.60;;;;;;4975810;28;20220;-66
2022/05/13 10:25:03;;;;;;;8.55;1.55;;;18.00;97.40;;;;;;4929134;28;206275;-67
2022/05/13 10:27:32;;;;;;;13.52;2.05;;;18.10;96.00;;;;;;4962842;28;20504;-67
2022/05/13 10:30:05;;;;;;;13.00;1.73;;;18.30;97.00;;;;;;4914876;28;213377;-67
2022/05/13 10:32:47;;;;;;;9.02;1.95;;;18.20;96.00;;;;;;4963690;28;20059;-67
2022/05/13 10:35:18;;;;;;;11.63;2.05;;;18.40;95.40;;;;;;4926219;28;208226;-67
2022/05/13 10:38:11;;;;;;;13.15;1.98;;;18.50;96.40;;;;;;4957400;28;20078;-67
2022/05/13 10:40:42;;;;;;;13.32;2.30;;;18.20;96.10;;;;;;4925049;28;223286;-67
2022/05/13 10:43:28;;;;;;;9.82;1.85;;;17.80;96.90;;;;;;4959272;28;20051;-67
2022/05/13 10:46:11;;;;;;;10.65;2.00;;;17.60;96.80;;;;;;4935784;28;210898;-68
2022/05/13 10:48:37;;;;;;;11.68;2.33;;;17.70;97.60;;;;;;4924893;28;221131;-68
2022/05/13 10:51:27;;;;;;;13.85;1.90;;;18.60;96.70;;;;;;4992199;28;20031;-68
2022/05/13 10:54:12;;;;;;;9.00;1.73;;;19.20;95.10;;;;;;4939257;28;217409;-68
2022/05/13 10:56:48;;;;;;;10.80;2.08;;;19.70;95.20;;;;;;4975280;28;20046;-68
2022/05/13 10:59:36;;;;;;;14.43;1.92;;;19.80;94.30;;;;;;4910257;28;236594;-68
2022/05/13 11:02:11;;;;;;;12.00;1.88;;;19.90;92.30;;;;;;4972492;28;20626;-68
2022/05/13 11:04:55;;;;;;;7.82;1.40;;;19.70;92.00;;;;;;4899693;28;229407;-67
2022/05/13 11:07:33;;;;;;;7.80;1.40;;;19.90;90.70;;;;;;4972106;28;20070;-67
2022/05/13 11:10:20;;;;;;;8.55;1.80;;;19.70;91.50;;;;;;4920633;28;219168;-68
2022/05/13 11:13:17;;;;;;;8.13;1.70;;;19.50;91.10;;;;;;4960376;28;20396;-67
2022/05/13 11:15:52;;;;;;;11.27;1.83;;;19.80;91.00;;;;;;4910733;28;207656;-68
2022/05/13 11:18:35;;;;;;;12.35;2.13;;;20.00;91.20;;;;;;4943800;28;227495;-68
2022/05/13 11:21:26;;;;;;;9.00;1.80;;;19.90;91.10;;;;;;4948317;28;115964;-68
2022/05/13 11:27:13;;;;;;;9.23;2.05;;;19.00;91.60;;;;;;4953136;28;20054;-68
2022/05/13 11:30:09;;;;;;;8.50;1.70;;;18.70;92.70;;;;;;4916442;28;256054;-68
2022/05/13 11:32:38;;;;;;;10.77;1.90;;;18.90;92.40;;;;;;4960142;28;20070;-67
2022/05/13 11:35:25;;;;;;;11.63;2.10;;;19.00;92.50;;;;;;4904204;28;231476;-68
2022/05/13 11:37:57;;;;;;;10.55;1.90;;;19.00;92.60;;;;;;4968699;28;20298;-68
2022/05/13 11:40:41;;;;;;;8.68;1.80;;;18.90;92.80;;;;;;4922943;28;217783;-68
2022/05/13 11:43:26;;;;;;;9.68;1.80;;;18.60;92.70;;;;;;4969390;28;20439;-68
2022/05/13 11:45:58;;;;;;;11.05;2.20;;;18.20;93.50;;;;;;4917917;28;167907;-68
2022/05/13 11:48:45;;;;;;;9.20;2.00;;;18.50;94.00;;;;;;4926131;28;205227;-68
2022/05/13 11:51:27;;;;;;;9.90;1.80;;;18.50;93.40;;;;;;4961594;28;244796;-68
2022/05/13 11:53:59;;;;;;;17.30;1.80;;;18.30;92.80;;;;;;4945508;28;207807;-67
2022/05/13 11:56:31;;;;;;;9.75;1.88;;;18.30;91.90;;;;;;4972465;28;20046;-67
2022/05/13 11:59:01;;;;;;;9.73;1.63;;;18.50;91.80;;;;;;4923584;28;206299;-67
2022/05/13 12:01:36;;;;;;;11.57;1.83;;;18.50;90.70;;;;;;4966970;28;20050;-68
2022/05/13 12:04:14;;;;;;;10.05;1.63;;;19.10;91.30;;;;;;4920410;28;195140;-70
2022/05/13 12:06:49;;;;;;;10.57;1.70;;;19.60;87.70;;;;;;4980390;28;20076;-69
2022/05/13 12:09:17;;;;;;;8.55;1.25;;;19.70;85.70;;;;;;4908584;28;222408;-69
2022/05/13 12:11:43;;;;;;;11.10;1.50;;;19.50;87.40;;;;;;4969866;28;20494;-68
2022/05/13 12:14:34;;;;;;;7.43;1.30;;;19.90;86.90;;;;;;4919327;28;211861;-67
2022/05/13 12:17:19;;;;;;;;;;;20.10;77.10;;;;;;4981453;28;20759;-70
2022/05/13 12:19:56;;;;;;;7.20;1.40;;;20.00;74.60;;;;;;4924774;28;211925;-67
2022/05/13 12:22:37;;;;;;;10.23;1.63;;;19.70;73.90;;;;;;4978250;28;20058;-71
2022/05/13 12:25:26;;;;;;;7.43;1.42;;;19.40;77.30;;;;;;4930202;28;209769;-71
2022/05/13 12:28:04;;;;;;;6.85;1.13;;;20.00;75.60;;;;;;4971018;28;20527;-67
2022/05/13 12:30:34;;;;;;;7.55;1.38;;;20.10;75.00;;;;;;4946640;28;251015;-68
2022/05/13 12:33:29;;;;;;;10.02;1.38;;;19.70;75.30;;;;;;4970943;28;20059;-68
2022/05/13 12:39:11;;;;;;;9.02;1.33;;;19.80;75.10;;;;;;4926443;28;209930;-66
2022/05/13 12:41:41;;;;;;;8.95;1.40;;;19.10;73.90;;;;;;4979061;28;20054;-66
2022/05/13 12:44:34;;;;;;;9.27;1.50;;;19.00;75.60;;;;;;4920417;28;210205;-66
2022/05/13 12:47:17;;;;;;;8.88;1.52;;;19.00;76.30;;;;;;4983303;28;20531;-67
2022/05/13 12:49:49;;;;;;;8.05;1.35;;;19.00;75.00;;;;;;4923039;28;210247;-66
2022/05/13 12:52:15;;;;;;;9.18;1.40;;;19.00;76.30;;;;;;4972007;28;20408;-66
2022/05/13 12:54:47;;;;;;;6.93;1.30;;;19.30;76.60;;;;;;4937234;28;210874;-66
2022/05/13 12:57:21;;;;;;;17.95;2.08;;;19.20;77.40;;;;;;4980215;28;20059;-71
2022/05/13 12:59:51;;;;;;;10.88;1.52;;;19.20;78.80;;;;;;4930826;28;209863;-67
2022/05/13 13:02:21;;;;;;;10.60;1.70;;;19.00;81.00;;;;;;4994139;28;20065;-67
2022/05/13 13:05:00;;;;;;;12.40;2.35;;;18.70;83.90;;;;;;4926518;28;210142;-67
2022/05/13 13:07:29;;;;;;;8.38;1.75;;;18.50;87.10;;;;;;4983384;28;20061;-67
2022/05/13 13:09:57;;;;;;;15.27;1.88;;;18.60;87.80;;;;;;4934402;28;206889;-68
2022/05/13 13:12:29;;;;;;;16.02;2.13;;;18.30;89.10;;;;;;4967448;28;20047;-68
2022/05/13 13:15:00;;;;;;;15.10;2.00;;;18.20;90.10;;;;;;4926686;28;212859;-68
2022/05/13 13:17:32;;;;;;;10.45;1.85;;;18.20;91.00;;;;;;4968276;28;20053;-68